createdAt,value
2019-03-29T00:01:04.592Z,10.60
2019-03-29T00:03:39.482Z,11.80
2019-03-29T00:06:14.038Z,10.57
2019-03-29T00:08:50.431Z,13.20
2019-03-29T00:11:25.227Z,12.77
2019-03-29T00:14:01.816Z,12.80
2019-03-29T00:16:36.321Z,12.10
2019-03-29T00:19:10.900Z,10.17
2019-03-29T00:21:45.428Z,10.43
2019-03-29T00:24:19.955Z,10.63
2019-03-29T00:26:54.577Z,10.13
2019-03-29T00:29:30.940Z,9.80
2019-03-29T00:32:06.116Z,9.73
2019-03-29T00:34:41.910Z,9.50
2019-03-29T00:37:17.323Z,10.27
2019-03-29T00:39:52.726Z,9.93
2019-03-29T00:42:28.997Z,12.33
2019-03-29T00:45:05.696Z,11.87
2019-03-29T00:47:43.220Z,10.90
2019-03-29T00:50:17.941Z,11.90
2019-03-29T00:52:52.577Z,12.80
2019-03-29T00:55:28.890Z,13.00
2019-03-29T00:58:03.417Z,14.90
2019-03-29T01:00:38.543Z,13.10
2019-03-29T01:03:13.162Z,14.30
2019-03-29T01:05:47.934Z,14.33
2019-03-29T01:08:22.534Z,14.40
2019-03-29T01:10:57.432Z,14.50
2019-03-29T01:13:31.984Z,14.37
2019-03-29T01:16:06.806Z,13.40
2019-03-29T01:18:41.303Z,13.80
2019-03-29T01:21:15.880Z,14.13
2019-03-29T01:23:50.550Z,13.83
2019-03-29T01:26:25.278Z,13.97
2019-03-29T01:28:59.822Z,15.53
2019-03-29T01:31:34.885Z,14.30
2019-03-29T01:34:09.460Z,15.87
2019-03-29T01:36:44.192Z,15.27
2019-03-29T01:39:18.718Z,15.60
2019-03-29T01:41:53.348Z,16.00
2019-03-29T01:44:28.233Z,15.17
2019-03-29T01:47:03.923Z,15.30
2019-03-29T01:49:38.691Z,16.90
2019-03-29T01:52:13.283Z,18.03
2019-03-29T01:54:47.903Z,18.67
2019-03-29T01:57:25.324Z,16.70
2019-03-29T01:59:59.946Z,17.70
2019-03-29T02:02:34.452Z,17.73
2019-03-29T02:05:09.714Z,16.97
2019-03-29T02:07:44.295Z,16.77
2019-03-29T02:10:22.761Z,17.20
2019-03-29T02:12:58.190Z,17.73
2019-03-29T02:15:32.772Z,20.03
2019-03-29T02:18:07.388Z,19.03
2019-03-29T02:20:42.032Z,19.47
2019-03-29T02:23:16.685Z,17.73
2019-03-29T02:25:51.210Z,17.80
2019-03-29T02:28:27.450Z,18.53
2019-03-29T02:31:02.499Z,20.10
2019-03-29T02:33:38.083Z,20.10
2019-03-29T02:36:13.142Z,20.50
2019-03-29T02:38:55.716Z,19.80
2019-03-29T02:41:23.846Z,19.30
2019-03-29T02:44:00.430Z,19.40
2019-03-29T02:46:36.467Z,21.70
2019-03-29T02:49:12.731Z,20.13
2019-03-29T02:51:47.826Z,20.27
2019-03-29T02:54:22.486Z,21.83
2019-03-29T02:56:58.903Z,20.40
2019-03-29T02:59:33.448Z,20.20
2019-03-29T03:02:08.163Z,19.43
2019-03-29T03:04:43.604Z,19.20
2019-03-29T03:07:18.174Z,20.57
2019-03-29T03:09:54.496Z,20.53
2019-03-29T03:12:29.120Z,22.43
2019-03-29T03:15:03.624Z,20.80
2019-03-29T03:17:39.504Z,21.73
2019-03-29T03:20:15.955Z,21.10
2019-03-29T03:22:50.678Z,21.97
2019-03-29T03:25:27.370Z,21.47
2019-03-29T03:28:01.930Z,21.50
2019-03-29T03:30:36.523Z,21.40
2019-03-29T03:33:11.213Z,21.47
2019-03-29T03:35:48.725Z,20.20
2019-03-29T03:38:23.376Z,21.67
2019-03-29T03:40:59.493Z,21.30
2019-03-29T03:43:34.328Z,23.10
2019-03-29T03:46:10.834Z,22.33
2019-03-29T03:48:46.758Z,22.67
2019-03-29T03:51:21.556Z,22.00
2019-03-29T03:53:57.124Z,22.97
2019-03-29T03:56:33.182Z,23.47
2019-03-29T03:59:08.101Z,24.37
2019-03-29T04:01:42.719Z,23.77
2019-03-29T04:04:17.248Z,22.93
2019-03-29T04:06:51.987Z,26.80
2019-03-29T04:09:26.670Z,22.43
2019-03-29T04:12:01.252Z,23.50
2019-03-29T04:14:37.252Z,23.47
2019-03-29T04:17:13.578Z,24.40
2019-03-29T04:19:48.548Z,24.03
2019-03-29T04:22:24.547Z,23.23
2019-03-29T04:25:00.578Z,23.33
2019-03-29T04:27:35.239Z,23.53
2019-03-29T04:30:10.428Z,22.25
2019-03-29T04:32:45.058Z,21.03
2019-03-29T04:35:19.770Z,24.43
2019-03-29T04:37:54.399Z,22.63
2019-03-29T04:40:28.871Z,23.63
2019-03-29T04:43:04.827Z,22.87
2019-03-29T04:45:39.316Z,23.43
2019-03-29T04:48:14.209Z,21.60
2019-03-29T04:50:48.703Z,24.07
2019-03-29T04:53:23.406Z,25.67
2019-03-29T04:55:58.126Z,27.37
2019-03-29T04:58:32.766Z,26.40
2019-03-29T05:01:07.222Z,26.43
2019-03-29T05:03:41.805Z,26.07
2019-03-29T05:06:16.324Z,26.33
2019-03-29T05:08:53.020Z,26.27
2019-03-29T05:11:27.669Z,27.00
2019-03-29T05:14:02.356Z,24.03
2019-03-29T05:16:38.720Z,23.03
2019-03-29T05:19:13.247Z,24.60
2019-03-29T05:21:47.762Z,25.07
2019-03-29T05:24:22.399Z,26.50
2019-03-29T05:26:57.211Z,25.87
2019-03-29T05:29:32.170Z,26.07
2019-03-29T05:32:06.634Z,26.27
2019-03-29T05:34:41.793Z,24.40
2019-03-29T05:37:16.436Z,24.73
2019-03-29T05:39:52.832Z,26.57
2019-03-29T05:42:27.349Z,25.50
2019-03-29T05:45:01.950Z,25.00
2019-03-29T05:47:36.545Z,25.70
2019-03-29T05:50:11.360Z,25.93
2019-03-29T05:52:45.852Z,28.33
2019-03-29T05:55:32.033Z,27.37
2019-03-29T05:57:57.115Z,28.00
2019-03-29T06:00:31.656Z,26.37
2019-03-29T06:03:06.189Z,25.30
2019-03-29T06:05:41.076Z,26.20
2019-03-29T06:08:15.757Z,27.17
2019-03-29T06:10:50.383Z,27.67
2019-03-29T06:13:26.603Z,26.50
2019-03-29T06:16:01.170Z,27.37
2019-03-29T06:18:35.833Z,27.20
2019-03-29T06:21:11.863Z,27.10
2019-03-29T06:23:46.587Z,27.20
2019-03-29T06:26:21.412Z,25.90
2019-03-29T06:28:56.398Z,27.83
2019-03-29T06:31:31.399Z,27.90
2019-03-29T06:34:05.960Z,26.83
2019-03-29T06:36:42.196Z,28.20
2019-03-29T06:39:21.192Z,28.60
2019-03-29T06:41:57.126Z,28.60
2019-03-29T06:44:31.893Z,26.17
2019-03-29T06:47:08.304Z,26.70
2019-03-29T06:49:42.809Z,27.03
2019-03-29T06:52:17.299Z,25.73
2019-03-29T06:54:53.713Z,26.80
2019-03-29T06:57:30.343Z,27.40
2019-03-29T07:00:05.220Z,29.00
2019-03-29T07:02:41.605Z,29.13
2019-03-29T07:05:16.378Z,27.30
2019-03-29T07:07:51.324Z,27.80
2019-03-29T07:10:56.461Z,28.73
2019-03-29T07:13:36.323Z,27.17
2019-03-29T07:16:12.566Z,28.67
2019-03-29T07:18:49.002Z,29.23
2019-03-29T07:21:23.652Z,26.50
2019-03-29T07:24:00.106Z,27.93
2019-03-29T07:26:36.544Z,25.73
2019-03-29T07:29:11.097Z,27.73
2019-03-29T07:31:45.823Z,27.20
2019-03-29T07:34:20.389Z,25.40
2019-03-29T07:36:55.026Z,26.40
2019-03-29T07:39:29.605Z,25.23
2019-03-29T07:42:04.683Z,24.00
2019-03-29T07:44:39.513Z,23.80
2019-03-29T07:47:14.094Z,23.80
2019-03-29T07:49:48.713Z,23.60
2019-03-29T07:52:23.565Z,20.77
2019-03-29T07:54:58.246Z,20.50
2019-03-29T07:57:34.852Z,19.33
2019-03-29T08:00:11.746Z,19.60
2019-03-29T08:02:47.301Z,18.97
2019-03-29T08:05:23.640Z,21.23
2019-03-29T08:07:59.886Z,19.53
2019-03-29T08:10:36.272Z,19.37
2019-03-29T08:13:12.394Z,18.40
2019-03-29T08:15:48.397Z,20.00
2019-03-29T08:18:22.957Z,20.50
2019-03-29T08:20:57.691Z,20.40
2019-03-29T08:23:32.220Z,20.13
2019-03-29T08:26:09.280Z,20.70
2019-03-29T08:28:43.946Z,20.97
2019-03-29T08:31:18.808Z,20.77
2019-03-29T08:33:53.580Z,20.33
2019-03-29T08:36:28.261Z,22.57
2019-03-29T08:39:02.729Z,20.33
2019-03-29T08:41:37.199Z,20.60
2019-03-29T08:44:12.050Z,20.93
2019-03-29T08:46:48.476Z,19.83
2019-03-29T08:49:24.752Z,19.90
2019-03-29T08:51:59.383Z,16.67
2019-03-29T08:54:36.195Z,17.43
2019-03-29T08:57:11.015Z,18.47
2019-03-29T08:59:47.134Z,17.70
2019-03-29T09:02:25.092Z,17.50
2019-03-29T09:04:59.585Z,17.50
2019-03-29T09:07:44.424Z,17.00
2019-03-29T09:10:26.116Z,14.97
2019-03-29T09:13:04.085Z,12.37
2019-03-29T09:15:36.884Z,15.23
2019-03-29T09:18:11.316Z,17.90
2019-03-29T09:20:46.010Z,16.37
2019-03-29T09:23:20.856Z,16.50
2019-03-29T09:25:55.637Z,15.43
2019-03-29T09:28:32.751Z,12.30
2019-03-29T09:31:08.167Z,13.40
2019-03-29T09:33:42.903Z,13.40
2019-03-29T09:36:17.425Z,13.97
2019-03-29T09:38:52.168Z,10.57
2019-03-29T09:41:26.955Z,10.10
2019-03-29T09:44:02.169Z,9.70
2019-03-29T09:46:36.939Z,12.47
2019-03-29T09:49:11.349Z,13.50
2019-03-29T09:51:47.555Z,10.67
2019-03-29T09:54:21.958Z,11.50
2019-03-29T09:56:57.071Z,10.67
2019-03-29T09:59:31.577Z,9.40
2019-03-29T10:02:06.200Z,10.70
2019-03-29T10:04:40.990Z,10.00
2019-03-29T10:07:15.832Z,11.07
2019-03-29T10:09:52.290Z,10.17
2019-03-29T10:12:26.908Z,9.37
2019-03-29T10:15:01.449Z,9.87
2019-03-29T10:17:37.704Z,10.77
2019-03-29T10:20:12.998Z,11.23
2019-03-29T10:22:48.013Z,11.43
2019-03-29T10:25:22.516Z,12.17
2019-03-29T10:27:57.136Z,11.43
2019-03-29T10:30:46.651Z,12.40
2019-03-29T10:33:20.960Z,10.70
2019-03-29T10:35:56.063Z,10.77
2019-03-29T10:38:30.932Z,11.97
2019-03-29T10:41:05.363Z,12.23
2019-03-29T10:43:39.841Z,12.93
2019-03-29T10:46:14.878Z,11.40
2019-03-29T10:48:49.762Z,10.50
2019-03-29T10:51:25.852Z,10.83
2019-03-29T10:54:00.263Z,10.70
2019-03-29T10:56:35.019Z,10.77
2019-03-29T10:59:09.407Z,11.20
2019-03-29T11:01:44.174Z,11.20
2019-03-29T11:04:18.672Z,12.33
2019-03-29T11:06:55.261Z,12.60
2019-03-29T11:09:30.064Z,11.77
2019-03-29T11:12:04.544Z,12.53
2019-03-29T11:14:39.101Z,13.00
2019-03-29T11:17:13.669Z,11.40
2019-03-29T11:19:48.277Z,13.00
2019-03-29T11:22:22.889Z,13.53
2019-03-29T11:24:57.309Z,12.73
2019-03-29T11:27:31.746Z,12.47
2019-03-29T11:30:06.822Z,12.50
2019-03-29T11:32:41.537Z,12.37
2019-03-29T11:35:16.150Z,13.13
2019-03-29T11:37:51.939Z,12.83
2019-03-29T11:40:28.280Z,12.33
2019-03-29T11:43:04.843Z,13.23
2019-03-29T11:45:40.329Z,12.30
2019-03-29T11:48:15.061Z,10.97
2019-03-29T11:50:49.692Z,12.37
2019-03-29T11:53:25.516Z,12.23
2019-03-29T11:56:01.685Z,12.43
2019-03-29T11:58:36.388Z,11.97
2019-03-29T12:01:11.148Z,10.50
2019-03-29T12:03:45.657Z,10.10
2019-03-29T12:06:20.183Z,10.20
2019-03-29T12:08:57.113Z,9.70
2019-03-29T12:11:31.144Z,11.17
2019-03-29T12:14:05.973Z,11.13
2019-03-29T12:16:41.013Z,10.20
2019-03-29T12:19:17.488Z,9.67
2019-03-29T12:21:52.528Z,10.10
2019-03-29T12:24:29.018Z,11.17
2019-03-29T12:27:04.082Z,11.00
2019-03-29T12:29:38.854Z,10.30
2019-03-29T12:32:10.836Z,11.30
2019-03-29T12:34:45.668Z,11.17
2019-03-29T12:37:21.085Z,11.40
2019-03-29T12:39:55.477Z,12.03
2019-03-29T12:42:29.975Z,11.00
2019-03-29T12:45:05.011Z,11.60
2019-03-29T12:47:41.826Z,12.70
2019-03-29T12:50:17.052Z,12.13
2019-03-29T12:52:51.639Z,10.77
2019-03-29T12:55:26.717Z,12.30
2019-03-29T12:58:01.357Z,11.77
2019-03-29T13:00:36.168Z,11.97
2019-03-29T13:03:11.175Z,11.40
2019-03-29T13:05:45.619Z,11.20
2019-03-29T13:08:20.564Z,11.67
2019-03-29T13:10:55.321Z,11.30
2019-03-29T13:13:30.958Z,12.40
2019-03-29T13:16:05.369Z,12.13
2019-03-29T13:18:42.017Z,11.47
2019-03-29T13:21:18.338Z,13.10
2019-03-29T13:23:52.888Z,12.60
2019-03-29T13:26:27.538Z,12.50
2019-03-29T13:29:02.310Z,12.60
2019-03-29T13:31:36.901Z,12.80
2019-03-29T13:34:11.858Z,12.60
2019-03-29T13:36:48.675Z,11.03
2019-03-29T13:39:23.224Z,10.97
2019-03-29T13:41:59.297Z,10.67
2019-03-29T13:44:34.087Z,11.33
2019-03-29T13:47:08.485Z,12.80
2019-03-29T13:49:43.232Z,12.10
2019-03-29T13:52:18.129Z,13.40
2019-03-29T13:54:53.241Z,13.97
2019-03-29T13:57:27.684Z,12.93
2019-03-29T14:00:02.116Z,11.77
2019-03-29T14:02:37.036Z,9.93
2019-03-29T14:05:12.374Z,10.10
2019-03-29T14:07:48.181Z,10.50
2019-03-29T14:10:22.714Z,11.70
2019-03-29T14:12:59.309Z,11.67
2019-03-29T14:15:33.908Z,11.70
2019-03-29T14:18:09.252Z,11.10
2019-03-29T14:20:44.133Z,10.53
2019-03-29T14:23:18.763Z,11.90
2019-03-29T14:25:53.234Z,11.77
2019-03-29T14:28:27.702Z,8.57
2019-03-29T14:31:02.172Z,9.30
2019-03-29T14:33:36.653Z,9.20
2019-03-29T14:36:11.455Z,10.10
2019-03-29T14:38:46.014Z,10.00
2019-03-29T14:41:20.481Z,9.60
2019-03-29T14:43:55.151Z,8.43
2019-03-29T14:46:31.404Z,8.40
2019-03-29T14:49:08.050Z,9.03
2019-03-29T14:51:42.442Z,8.63
2019-03-29T14:54:16.877Z,9.37
2019-03-29T14:56:51.599Z,8.37
2019-03-29T14:59:26.041Z,9.20
2019-03-29T15:02:00.478Z,9.40
2019-03-29T15:04:34.961Z,8.20
2019-03-29T15:07:09.466Z,9.10
2019-03-29T15:09:44.028Z,8.53
2019-03-29T15:12:18.538Z,9.80
2019-03-29T15:15:05.599Z,8.90
2019-03-29T15:17:29.076Z,8.27
2019-03-29T15:20:07.505Z,7.83
2019-03-29T15:22:41.919Z,8.90
2019-03-29T15:25:16.341Z,8.90
2019-03-29T15:27:50.755Z,7.73
2019-03-29T15:30:25.169Z,8.20
2019-03-29T15:32:59.649Z,9.50
2019-03-29T15:35:34.106Z,8.63
2019-03-29T15:38:08.821Z,7.97
2019-03-29T15:40:43.250Z,7.90
2019-03-29T15:43:18.040Z,7.83
2019-03-29T15:45:52.847Z,7.97
2019-03-29T15:48:27.940Z,7.90
2019-03-29T15:51:02.461Z,8.33
2019-03-29T15:53:37.090Z,8.40
2019-03-29T15:56:11.810Z,8.40
2019-03-29T15:58:46.275Z,7.97
2019-03-29T16:01:20.661Z,8.40
2019-03-29T16:03:55.071Z,9.13
2019-03-29T16:06:29.535Z,8.40
2019-03-29T16:09:04.750Z,8.50
2019-03-29T16:11:39.183Z,8.53
2019-03-29T16:14:13.697Z,8.57
2019-03-29T16:16:48.148Z,9.10
2019-03-29T16:19:22.535Z,8.97
2019-03-29T16:21:57.072Z,9.30
2019-03-29T16:24:31.466Z,8.23
2019-03-29T16:27:06.282Z,9.90
2019-03-29T16:29:42.214Z,8.67
2019-03-29T16:32:16.643Z,8.97
2019-03-29T16:34:51.123Z,9.00
2019-03-29T16:37:26.051Z,9.33
2019-03-29T16:40:00.523Z,9.00
2019-03-29T16:42:35.024Z,9.03
2019-03-29T16:45:09.653Z,9.80
2019-03-29T16:47:44.154Z,9.73
2019-03-29T16:50:18.543Z,9.77
2019-03-29T16:52:53.025Z,9.70
2019-03-29T16:55:32.129Z,9.50
2019-03-29T16:58:06.757Z,9.43
2019-03-29T17:00:41.274Z,10.50
2019-03-29T17:03:15.732Z,10.67
2019-03-29T17:05:50.822Z,9.73
2019-03-29T17:08:25.301Z,9.87
2019-03-29T17:10:59.784Z,10.50
2019-03-29T17:13:34.227Z,10.00
2019-03-29T17:16:08.831Z,9.50
2019-03-29T17:18:43.324Z,10.60
2019-03-29T17:21:17.787Z,10.10
2019-03-29T17:23:52.858Z,11.03
2019-03-29T17:27:38.616Z,9.90
2019-03-29T17:30:15.685Z,10.30
2019-03-29T17:32:50.555Z,10.70
2019-03-29T17:35:25.036Z,10.70
2019-03-29T17:37:59.438Z,10.93
2019-03-29T17:40:35.710Z,10.57
2019-03-29T17:43:10.209Z,10.50
2019-03-29T17:45:44.727Z,11.03
2019-03-29T17:48:19.294Z,9.40
2019-03-29T17:50:53.696Z,10.63
2019-03-29T17:53:28.487Z,10.90
2019-03-29T17:56:03.469Z,10.77
2019-03-29T17:58:38.297Z,11.70
2019-03-29T18:01:13.297Z,10.73
2019-03-29T18:03:47.781Z,11.73
2019-03-29T18:06:22.228Z,10.83
2019-03-29T18:08:56.742Z,11.23
2019-03-29T18:11:31.313Z,10.83
2019-03-29T18:14:06.136Z,10.03
2019-03-29T18:16:40.676Z,10.40
2019-03-29T18:19:15.476Z,9.67
2019-03-29T18:21:49.955Z,10.50
2019-03-29T18:24:24.362Z,11.73
2019-03-29T18:26:58.852Z,10.40
2019-03-29T18:29:33.590Z,12.00
2019-03-29T18:32:08.432Z,10.63
2019-03-29T18:34:43.094Z,11.63
2019-03-29T18:37:17.644Z,11.00
2019-03-29T18:39:54.980Z,9.90
2019-03-29T18:42:28.720Z,11.50
2019-03-29T18:45:03.649Z,12.67
2019-03-29T18:47:38.385Z,13.10
2019-03-29T18:50:13.103Z,13.60
2019-03-29T18:52:47.641Z,12.33
2019-03-29T18:55:22.733Z,13.23
2019-03-29T18:57:57.601Z,13.53
2019-03-29T19:00:34.127Z,13.10
2019-03-29T19:03:11.994Z,14.03
2019-03-29T19:05:46.842Z,12.80
2019-03-29T19:08:21.483Z,13.70
2019-03-29T19:10:56.565Z,13.57
2019-03-29T19:13:31.211Z,15.33
2019-03-29T19:16:05.977Z,17.40
2019-03-29T19:18:42.461Z,15.10
2019-03-29T19:21:17.494Z,15.10
2019-03-29T19:23:52.314Z,14.03
2019-03-29T19:26:28.781Z,14.37
2019-03-29T19:29:03.709Z,15.10
2019-03-29T19:31:38.200Z,15.60
2019-03-29T19:34:13.660Z,14.23
2019-03-29T19:36:48.227Z,15.70
2019-03-29T19:39:23.589Z,15.20
2019-03-29T19:41:58.294Z,15.77
2019-03-29T19:44:33.985Z,14.80
2019-03-29T19:47:13.681Z,14.30
2019-03-29T19:49:45.027Z,15.27
2019-03-29T19:52:19.459Z,19.53
2019-03-29T19:54:53.921Z,16.63
2019-03-29T19:57:28.954Z,16.20
2019-03-29T20:00:06.103Z,16.87
2019-03-29T20:02:39.857Z,16.73
2019-03-29T20:05:29.630Z,16.20
2019-03-29T20:08:05.593Z,15.47
2019-03-29T20:10:40.038Z,16.43
2019-03-29T20:13:14.543Z,18.57
2019-03-29T20:15:49.346Z,16.20
2019-03-29T20:18:25.737Z,15.97
2019-03-29T20:21:01.861Z,16.77
2019-03-29T20:23:36.260Z,14.77
2019-03-29T20:26:10.739Z,14.27
2019-03-29T20:28:45.185Z,15.97
2019-03-29T20:31:19.974Z,14.97
2019-03-29T20:33:54.509Z,15.47
2019-03-29T20:36:28.921Z,15.00
2019-03-29T20:39:03.758Z,15.33
2019-03-29T20:41:38.556Z,15.40
2019-03-29T20:44:15.256Z,16.77
2019-03-29T20:46:49.975Z,16.40
2019-03-29T20:49:24.415Z,16.97
2019-03-29T20:51:59.194Z,15.90
2019-03-29T20:54:33.916Z,17.20
2019-03-29T20:57:08.655Z,17.20
2019-03-29T20:59:43.907Z,16.33
2019-03-29T21:02:18.353Z,17.13
2019-03-29T21:04:53.099Z,17.43
2019-03-29T21:07:27.599Z,18.33
2019-03-29T21:10:02.092Z,17.70
2019-03-29T21:12:38.176Z,17.30
2019-03-29T21:15:13.104Z,16.40
2019-03-29T21:17:56.445Z,16.70
2019-03-29T21:20:23.948Z,16.50
2019-03-29T21:22:58.745Z,17.37
2019-03-29T21:25:33.147Z,17.37
2019-03-29T21:28:07.685Z,17.63
2019-03-29T21:30:42.359Z,18.80
2019-03-29T21:33:17.171Z,17.70
2019-03-29T21:35:51.860Z,16.20
2019-03-29T21:38:26.345Z,16.87
2019-03-29T21:41:00.725Z,16.20
2019-03-29T21:43:35.240Z,15.80
2019-03-29T21:46:10.031Z,16.43
2019-03-29T21:48:44.502Z,16.60
2019-03-29T21:51:18.970Z,15.90
2019-03-29T21:53:54.546Z,16.47
2019-03-29T21:56:29.118Z,18.57
2019-03-29T21:59:03.552Z,15.97
2019-03-29T22:01:40.862Z,17.23
2019-03-29T22:04:15.850Z,17.13
2019-03-29T22:06:50.552Z,16.97
2019-03-29T22:09:36.393Z,16.17
2019-03-29T22:12:01.077Z,15.73
2019-03-29T22:14:35.483Z,16.97
2019-03-29T22:17:10.329Z,15.93
2019-03-29T22:19:45.022Z,15.60
2019-03-29T22:22:19.969Z,14.37
2019-03-29T22:24:54.457Z,13.80
2019-03-29T22:27:28.838Z,14.90
2019-03-29T22:30:03.403Z,15.20
2019-03-29T22:32:38.682Z,15.20
2019-03-29T22:35:13.090Z,13.80
2019-03-29T22:37:47.576Z,12.90
2019-03-29T22:40:21.953Z,13.03
2019-03-29T22:42:56.649Z,13.67
2019-03-29T22:45:31.614Z,13.37
2019-03-29T22:48:06.717Z,13.37
2019-03-29T22:50:41.070Z,12.77
2019-03-29T22:53:15.652Z,14.60
2019-03-29T22:55:50.046Z,13.17
2019-03-29T22:58:24.454Z,13.70
2019-03-29T23:01:00.763Z,13.83
2019-03-29T23:03:35.155Z,14.57
2019-03-29T23:06:09.549Z,13.53
2019-03-29T23:08:43.907Z,18.33
2019-03-29T23:11:18.323Z,17.50
2019-03-29T23:13:52.710Z,21.07
2019-03-29T23:16:30.261Z,25.70
2019-03-29T23:19:06.721Z,24.43
2019-03-29T23:21:39.504Z,23.57
2019-03-29T23:24:13.916Z,17.10
2019-03-29T23:26:48.565Z,16.47
2019-03-29T23:29:22.982Z,16.03
2019-03-29T23:31:57.620Z,16.57
2019-03-29T23:34:32.309Z,15.33
2019-03-29T23:37:06.657Z,14.80
2019-03-29T23:39:41.252Z,14.37
2019-03-29T23:42:16.290Z,15.33
2019-03-29T23:44:51.122Z,14.90
2019-03-29T23:47:25.458Z,14.53
2019-03-29T23:50:00.291Z,14.30
2019-03-29T23:52:34.688Z,15.03
2019-03-29T23:55:09.133Z,15.43
2019-03-29T23:57:43.580Z,16.00
